createdAt,value
2022-10-22T00:01:01.480Z,14.60
2022-10-22T00:03:30.718Z,14.50
2022-10-22T00:05:58.380Z,14.50
2022-10-22T00:08:27.433Z,14.50
2022-10-22T00:10:55.274Z,14.50
2022-10-22T00:13:23.408Z,14.40
2022-10-22T00:15:51.251Z,14.40
2022-10-22T00:18:18.914Z,14.40
2022-10-22T00:20:48.090Z,14.30
2022-10-22T00:23:15.766Z,14.30
2022-10-22T00:25:43.451Z,14.20
2022-10-22T00:28:12.362Z,14.20
2022-10-22T00:30:40.147Z,14.30
2022-10-22T00:33:07.900Z,14.40
2022-10-22T00:35:36.165Z,14.40
2022-10-22T00:38:05.273Z,14.40
2022-10-22T00:40:33.086Z,14.40
2022-10-22T00:43:00.772Z,14.40
2022-10-22T00:45:29.220Z,14.50
2022-10-22T00:48:00.768Z,14.50
2022-10-22T00:50:32.262Z,14.50
2022-10-22T00:53:01.213Z,14.50
2022-10-22T00:55:31.438Z,14.50
2022-10-22T00:57:59.779Z,14.50
2022-10-22T01:00:27.951Z,14.50
2022-10-22T01:02:56.203Z,14.60
2022-10-22T01:05:27.071Z,14.60
2022-10-22T01:07:55.257Z,14.60
2022-10-22T01:10:39.792Z,14.60
2022-10-22T01:13:18.256Z,14.50
2022-10-22T01:15:52.474Z,14.50
2022-10-22T01:18:31.054Z,14.60
2022-10-22T01:21:05.843Z,14.70
2022-10-22T01:23:55.855Z,14.70
2022-10-22T01:26:32.239Z,14.70
2022-10-22T01:29:06.143Z,14.80
2022-10-22T01:31:39.223Z,14.80
2022-10-22T01:34:09.078Z,14.80
2022-10-22T01:36:38.428Z,14.90
2022-10-22T01:39:07.237Z,14.90
2022-10-22T01:41:36.063Z,15.00
2022-10-22T01:44:05.151Z,15.00
2022-10-22T01:46:33.403Z,15.00
2022-10-22T01:49:15.433Z,15.00
2022-10-22T01:51:57.223Z,15.00
2022-10-22T01:54:32.975Z,15.00
2022-10-22T01:57:10.395Z,15.00
2022-10-22T01:59:47.236Z,15.00
2022-10-22T02:02:26.871Z,14.90
2022-10-22T02:04:59.471Z,14.70
2022-10-22T02:07:31.486Z,14.70
2022-10-22T02:10:01.823Z,14.70
2022-10-22T02:12:32.112Z,14.60
2022-10-22T02:15:02.574Z,14.60
2022-10-22T02:17:33.368Z,14.60
2022-10-22T02:20:04.352Z,14.70
2022-10-22T02:22:32.391Z,14.70
2022-10-22T02:25:00.147Z,14.70
2022-10-22T02:27:31.606Z,14.80
2022-10-22T02:30:05.633Z,14.80
2022-10-22T02:32:40.124Z,14.80
2022-10-22T02:35:09.496Z,14.80
2022-10-22T02:37:37.835Z,14.80
2022-10-22T02:40:06.139Z,14.90
2022-10-22T02:42:36.576Z,14.90
2022-10-22T02:45:06.419Z,14.90
2022-10-22T02:47:34.090Z,14.80
2022-10-22T02:50:09.423Z,14.80
2022-10-22T02:52:39.149Z,14.80
2022-10-22T02:55:08.146Z,14.70
2022-10-22T02:57:35.951Z,14.80
2022-10-22T03:00:06.235Z,14.80
2022-10-22T03:02:37.570Z,14.90
2022-10-22T03:05:05.897Z,14.80
2022-10-22T03:07:34.355Z,14.80
2022-10-22T03:10:02.071Z,14.90
2022-10-22T03:12:29.866Z,14.80
2022-10-22T03:14:57.577Z,14.70
2022-10-22T03:17:26.588Z,14.70
2022-10-22T03:19:54.330Z,14.80
2022-10-22T03:22:25.395Z,14.80
2022-10-22T03:25:09.911Z,14.80
2022-10-22T03:27:40.078Z,14.80
2022-10-22T03:30:09.488Z,14.80
2022-10-22T03:32:38.655Z,14.60
2022-10-22T03:35:06.908Z,14.60
2022-10-22T03:37:35.581Z,14.60
2022-10-22T03:40:05.539Z,14.60
2022-10-22T03:42:33.518Z,14.60
2022-10-22T03:45:01.246Z,14.60
2022-10-22T03:47:28.922Z,14.50
2022-10-22T03:49:57.972Z,14.50
2022-10-22T03:52:25.687Z,14.30
2022-10-22T03:54:53.362Z,14.30
2022-10-22T03:57:21.070Z,14.20
2022-10-22T03:59:48.905Z,14.20
2022-10-22T04:02:16.630Z,14.20
2022-10-22T04:04:44.282Z,14.30
2022-10-22T04:07:13.313Z,14.30
2022-10-22T04:09:40.997Z,14.40
2022-10-22T04:12:09.460Z,14.40
2022-10-22T04:14:37.188Z,14.50
2022-10-22T04:17:05.138Z,14.50
2022-10-22T04:19:32.811Z,14.50
2022-10-22T04:22:00.952Z,14.50
2022-10-22T04:24:31.663Z,14.40
2022-10-22T04:27:00.218Z,14.30
2022-10-22T04:29:28.154Z,14.30
2022-10-22T04:31:55.835Z,14.30
2022-10-22T04:34:23.542Z,14.30
2022-10-22T04:36:51.287Z,14.40
2022-10-22T04:39:18.996Z,14.40
2022-10-22T04:41:47.980Z,14.50
2022-10-22T04:44:17.163Z,14.50
2022-10-22T04:46:46.115Z,14.50
2022-10-22T04:49:14.268Z,14.50
2022-10-22T04:51:46.980Z,14.50
2022-10-22T04:54:15.173Z,14.50
2022-10-22T04:56:43.015Z,14.50
2022-10-22T04:59:15.682Z,14.50
2022-10-22T05:01:45.277Z,14.40
2022-10-22T05:04:15.913Z,14.40
2022-10-22T05:06:44.570Z,14.40
2022-10-22T05:09:14.655Z,14.30
2022-10-22T05:11:45.400Z,14.30
2022-10-22T05:14:16.557Z,14.20
2022-10-22T05:16:47.865Z,14.10
2022-10-22T05:19:18.866Z,14.10
2022-10-22T05:21:46.694Z,14.10
2022-10-22T05:24:14.615Z,14.10
2022-10-22T05:26:42.490Z,14.10
2022-10-22T05:29:10.110Z,14.20
2022-10-22T05:31:40.795Z,14.20
2022-10-22T05:34:08.553Z,14.10
2022-10-22T05:36:38.787Z,14.10
2022-10-22T05:39:08.134Z,14.10
2022-10-22T05:41:36.836Z,14.10
2022-10-22T05:44:05.392Z,14.20
2022-10-22T05:46:36.582Z,14.20
2022-10-22T05:49:07.499Z,14.20
2022-10-22T05:51:37.174Z,14.10
2022-10-22T05:54:08.274Z,14.10
2022-10-22T05:56:36.667Z,14.10
2022-10-22T05:59:05.167Z,14.20
2022-10-22T06:01:35.193Z,14.20
2022-10-22T06:04:06.572Z,14.10
2022-10-22T06:06:36.151Z,14.20
2022-10-22T06:09:07.561Z,14.20
2022-10-22T06:11:35.532Z,14.20
2022-10-22T06:14:03.374Z,14.10
2022-10-22T06:16:31.947Z,14.10
2022-10-22T06:19:02.752Z,14.10
2022-10-22T06:21:32.536Z,14.10
2022-10-22T06:24:01.456Z,14.10
2022-10-22T06:26:29.914Z,14.00
2022-10-22T06:28:58.223Z,13.90
2022-10-22T06:31:27.532Z,13.90
2022-10-22T06:33:55.587Z,13.80
2022-10-22T06:36:25.012Z,13.80
2022-10-22T06:38:55.366Z,13.80
2022-10-22T06:41:29.508Z,13.90
2022-10-22T06:43:58.343Z,13.90
2022-10-22T06:46:26.795Z,13.90
2022-10-22T06:48:58.159Z,13.90
2022-10-22T06:51:26.377Z,13.90
2022-10-22T06:53:55.946Z,13.90
2022-10-22T06:56:26.346Z,14.00
2022-10-22T06:58:57.239Z,14.00
2022-10-22T07:01:27.518Z,14.00
2022-10-22T07:03:55.763Z,14.10
2022-10-22T07:06:24.557Z,14.00
2022-10-22T07:08:53.048Z,14.00
2022-10-22T07:11:23.901Z,14.00
2022-10-22T07:13:52.639Z,14.10
2022-10-22T07:16:20.394Z,14.30
2022-10-22T07:18:48.649Z,14.60
2022-10-22T07:21:20.193Z,15.00
2022-10-22T07:23:48.174Z,15.00
2022-10-22T07:26:17.591Z,15.00
2022-10-22T07:28:46.985Z,15.20
2022-10-22T07:31:16.268Z,15.30
2022-10-22T07:33:44.084Z,15.40
2022-10-22T07:36:17.364Z,15.50
2022-10-22T07:38:45.935Z,15.60
2022-10-22T07:41:14.389Z,15.70
2022-10-22T07:43:42.567Z,16.10
2022-10-22T07:46:11.960Z,16.70
2022-10-22T07:48:39.984Z,17.30
2022-10-22T07:51:07.716Z,17.80
2022-10-22T07:53:35.755Z,18.40
2022-10-22T07:56:03.517Z,19.50
2022-10-22T07:58:31.675Z,19.80
2022-10-22T08:01:01.580Z,20.60
2022-10-22T08:03:31.173Z,21.10
2022-10-22T08:05:59.278Z,22.00
2022-10-22T08:08:29.857Z,22.90
2022-10-22T08:11:00.716Z,22.90
2022-10-22T08:13:32.619Z,23.70
2022-10-22T08:16:01.198Z,24.50
2022-10-22T08:18:30.836Z,24.90
2022-10-22T08:20:59.750Z,24.40
2022-10-22T08:23:31.403Z,24.00
2022-10-22T08:26:02.919Z,23.30
2022-10-22T08:28:34.306Z,22.80
2022-10-22T08:31:03.503Z,22.60
2022-10-22T08:33:32.538Z,22.50
2022-10-22T08:36:00.526Z,22.70
2022-10-22T08:38:28.334Z,23.10
2022-10-22T08:41:05.333Z,22.70
2022-10-22T08:43:45.424Z,22.90
2022-10-22T08:46:25.783Z,23.80
2022-10-22T08:48:59.593Z,24.50
2022-10-22T08:51:35.190Z,25.10
2022-10-22T08:54:15.250Z,25.10
2022-10-22T08:56:47.884Z,25.50
2022-10-22T08:59:21.072Z,25.70
2022-10-22T09:01:52.335Z,25.10
2022-10-22T09:04:27.518Z,24.90
2022-10-22T09:06:58.462Z,24.00
2022-10-22T09:09:37.830Z,23.80
2022-10-22T09:12:07.091Z,23.70
2022-10-22T09:14:34.947Z,23.40
2022-10-22T09:17:22.113Z,23.40
2022-10-22T09:20:01.677Z,23.20
2022-10-22T09:22:35.962Z,23.00
2022-10-22T09:25:17.238Z,22.70
2022-10-22T09:27:45.010Z,22.70
2022-10-22T09:30:16.974Z,23.10
2022-10-22T09:32:44.688Z,22.70
2022-10-22T09:35:15.966Z,23.00
2022-10-22T09:37:50.380Z,23.50
2022-10-22T09:40:19.692Z,23.90
2022-10-22T09:42:47.885Z,24.10
2022-10-22T09:45:20.997Z,24.20
2022-10-22T09:48:04.718Z,24.30
2022-10-22T09:50:45.565Z,25.00
2022-10-22T09:53:20.990Z,25.50
2022-10-22T09:55:57.433Z,26.00
2022-10-22T09:58:27.962Z,26.70
2022-10-22T10:00:58.367Z,27.40
2022-10-22T10:03:27.702Z,28.10
2022-10-22T10:06:03.240Z,28.70
2022-10-22T10:08:34.751Z,28.40
2022-10-22T10:11:11.554Z,27.90
2022-10-22T10:13:48.685Z,27.20
2022-10-22T10:16:37.103Z,26.40
2022-10-22T10:19:25.772Z,25.70
2022-10-22T10:22:05.267Z,25.00
2022-10-22T10:24:43.567Z,24.30
2022-10-22T10:27:22.092Z,24.10
2022-10-22T10:30:02.412Z,24.00
2022-10-22T10:32:45.358Z,24.70
2022-10-22T10:35:22.570Z,25.40
2022-10-22T10:38:09.531Z,25.80
2022-10-22T10:40:45.835Z,25.90
2022-10-22T10:43:19.623Z,25.50
2022-10-22T10:45:57.894Z,25.00
2022-10-22T10:48:47.083Z,24.30
2022-10-22T10:51:29.168Z,23.00
2022-10-22T10:54:23.046Z,22.90
2022-10-22T10:56:56.876Z,22.60
2022-10-22T10:59:36.694Z,22.70
2022-10-22T11:02:26.019Z,23.00
2022-10-22T11:05:15.647Z,23.20
2022-10-22T11:07:51.044Z,23.50
2022-10-22T11:10:30.782Z,23.80
2022-10-22T11:13:09.681Z,24.40
2022-10-22T11:15:40.293Z,24.50
2022-10-22T11:18:18.348Z,25.10
2022-10-22T11:20:52.879Z,25.80
2022-10-22T11:23:28.334Z,27.00
2022-10-22T11:25:57.495Z,27.70
2022-10-22T11:28:29.748Z,26.90
2022-10-22T11:31:03.210Z,26.70
2022-10-22T11:33:43.655Z,25.80
2022-10-22T11:36:14.811Z,24.70
2022-10-22T11:38:45.469Z,24.10
2022-10-22T11:41:17.711Z,23.90
2022-10-22T11:44:06.467Z,23.70
2022-10-22T11:46:40.879Z,23.30
2022-10-22T11:49:23.189Z,22.90
2022-10-22T11:52:05.967Z,22.80
2022-10-22T11:54:43.626Z,22.80
2022-10-22T11:57:22.010Z,22.70
2022-10-22T11:59:52.850Z,22.70
2022-10-22T12:02:25.860Z,22.60
2022-10-22T12:04:53.639Z,22.50
2022-10-22T12:07:49.407Z,22.40
2022-10-22T12:10:20.459Z,22.30
2022-10-22T12:12:57.966Z,22.20
2022-10-22T12:15:28.555Z,22.20
2022-10-22T12:18:01.778Z,22.10
2022-10-22T12:20:30.542Z,22.10
2022-10-22T12:23:00.571Z,22.00
2022-10-22T12:25:35.892Z,22.00
2022-10-22T12:28:05.544Z,22.00
2022-10-22T12:30:35.356Z,22.10
2022-10-22T12:33:05.753Z,22.10
2022-10-22T12:35:36.488Z,22.10
2022-10-22T12:38:09.351Z,22.10
2022-10-22T12:40:37.158Z,22.10
2022-10-22T12:43:13.394Z,22.10
2022-10-22T12:45:47.252Z,22.10
2022-10-22T12:48:19.348Z,22.10
2022-10-22T12:50:51.102Z,22.00
2022-10-22T12:53:23.065Z,22.00
2022-10-22T12:55:52.960Z,21.90
2022-10-22T12:58:32.286Z,21.90
2022-10-22T13:01:02.118Z,22.00
2022-10-22T13:03:33.856Z,21.90
2022-10-22T13:06:13.848Z,21.90
2022-10-22T13:08:41.938Z,22.00
2022-10-22T13:11:12.680Z,22.00
2022-10-22T13:13:45.626Z,22.00
2022-10-22T13:16:16.585Z,21.90
2022-10-22T13:18:45.090Z,21.90
2022-10-22T13:21:26.259Z,21.80
2022-10-22T13:23:56.458Z,21.90
2022-10-22T13:26:26.282Z,21.90
2022-10-22T13:28:57.576Z,21.80
2022-10-22T13:31:27.156Z,21.80
2022-10-22T13:33:57.462Z,21.90
2022-10-22T13:36:25.664Z,21.90
2022-10-22T13:38:53.338Z,22.00
2022-10-22T13:41:23.728Z,22.00
2022-10-22T13:43:53.028Z,22.00
2022-10-22T13:46:23.255Z,22.00
2022-10-22T13:48:53.471Z,21.90
2022-10-22T13:51:27.785Z,21.90
2022-10-22T13:53:55.898Z,21.90
2022-10-22T13:56:23.827Z,21.80
2022-10-22T13:58:51.875Z,21.70
2022-10-22T14:01:24.396Z,21.70
2022-10-22T14:03:54.875Z,21.60
2022-10-22T14:06:23.893Z,21.70
2022-10-22T14:08:57.070Z,21.70
2022-10-22T14:11:27.106Z,21.70
2022-10-22T14:13:54.958Z,21.70
2022-10-22T14:16:26.575Z,21.70
2022-10-22T14:18:58.322Z,21.60
2022-10-22T14:21:26.546Z,21.50
2022-10-22T14:23:54.417Z,21.50
2022-10-22T14:26:24.852Z,21.50
2022-10-22T14:31:44.370Z,21.50
2022-10-22T14:34:14.117Z,21.40
2022-10-22T14:36:44.071Z,21.40
2022-10-22T14:39:12.226Z,21.30
2022-10-22T14:41:44.407Z,21.30
2022-10-22T14:44:14.023Z,21.30
2022-10-22T14:46:46.644Z,21.50
2022-10-22T14:49:14.490Z,21.60
2022-10-22T14:51:43.004Z,21.80
2022-10-22T14:54:10.687Z,22.00
2022-10-22T14:56:38.646Z,22.10
2022-10-22T14:59:06.398Z,22.30
2022-10-22T15:01:34.123Z,22.10
2022-10-22T15:04:03.163Z,22.00
2022-10-22T15:06:30.887Z,21.90
2022-10-22T15:08:58.661Z,21.70
2022-10-22T15:11:26.670Z,21.50
2022-10-22T15:13:54.461Z,21.40
2022-10-22T15:16:22.138Z,21.20
2022-10-22T15:18:49.882Z,20.90
2022-10-22T15:21:21.010Z,20.80
2022-10-22T15:23:49.223Z,20.50
2022-10-22T15:26:19.041Z,20.40
2022-10-22T15:28:46.750Z,20.20
2022-10-22T15:31:38.145Z,20.10
2022-10-22T15:34:08.290Z,19.90
2022-10-22T15:36:37.474Z,19.60
2022-10-22T15:39:09.458Z,19.40
2022-10-22T15:41:37.495Z,19.40
2022-10-22T15:44:05.799Z,19.20
2022-10-22T15:46:35.404Z,18.90
2022-10-22T15:49:03.623Z,18.80
2022-10-22T15:51:31.361Z,18.70
2022-10-22T15:54:00.730Z,18.50
2022-10-22T15:56:30.200Z,18.40
2022-10-22T15:58:59.716Z,18.30
2022-10-22T16:01:28.830Z,18.20
2022-10-22T16:04:02.398Z,18.00
2022-10-22T16:06:31.633Z,18.00
2022-10-22T16:09:02.557Z,17.90
2022-10-22T16:11:30.459Z,17.80
2022-10-22T16:13:59.727Z,17.70
2022-10-22T16:16:29.170Z,17.60
2022-10-22T16:18:57.195Z,17.60
2022-10-22T16:21:25.597Z,17.50
2022-10-22T16:23:53.704Z,17.30
2022-10-22T16:26:22.747Z,17.30
2022-10-22T16:28:50.563Z,17.20
2022-10-22T16:31:23.391Z,17.10
2022-10-22T16:33:51.474Z,17.10
2022-10-22T16:36:21.012Z,17.00
2022-10-22T16:38:49.611Z,16.80
2022-10-22T16:41:18.967Z,16.50
2022-10-22T16:43:50.131Z,16.50
2022-10-22T16:46:19.096Z,16.40
2022-10-22T16:48:47.654Z,16.40
2022-10-22T16:51:18.490Z,16.30
2022-10-22T16:53:46.310Z,16.20
2022-10-22T16:56:16.223Z,16.10
2022-10-22T16:58:45.699Z,16.10
2022-10-22T17:01:17.960Z,16.00
2022-10-22T17:03:46.519Z,15.90
2022-10-22T17:06:14.561Z,15.90
2022-10-22T17:08:43.033Z,15.80
2022-10-22T17:11:12.570Z,15.80
2022-10-22T17:13:42.388Z,15.80
2022-10-22T17:16:13.043Z,15.70
2022-10-22T17:18:43.131Z,15.70
2022-10-22T17:21:12.756Z,15.60
2022-10-22T17:23:42.398Z,15.60
2022-10-22T17:26:16.212Z,15.50
2022-10-22T17:28:44.232Z,15.50
2022-10-22T17:31:17.818Z,15.40
2022-10-22T17:33:47.498Z,15.30
2022-10-22T17:36:16.991Z,15.30
2022-10-22T17:38:48.673Z,15.30
2022-10-22T17:41:18.994Z,15.20
2022-10-22T17:43:47.305Z,15.20
2022-10-22T17:46:18.654Z,15.10
2022-10-22T17:48:50.568Z,15.10
2022-10-22T17:51:19.354Z,15.00
2022-10-22T17:53:47.382Z,15.00
2022-10-22T17:56:17.051Z,14.90
2022-10-22T17:58:45.155Z,14.90
2022-10-22T18:01:22.851Z,14.90
2022-10-22T18:03:52.835Z,14.90
2022-10-22T18:06:20.999Z,14.90
2022-10-22T18:08:48.835Z,14.80
2022-10-22T18:11:20.570Z,14.80
2022-10-22T18:13:50.119Z,14.70
2022-10-22T18:16:18.067Z,14.60
2022-10-22T18:18:47.476Z,14.60
2022-10-22T18:21:16.613Z,14.60
2022-10-22T18:23:45.016Z,14.60
2022-10-22T18:26:13.258Z,14.60
2022-10-22T18:28:44.739Z,14.50
2022-10-22T18:31:16.955Z,14.40
2022-10-22T18:33:44.768Z,14.50
2022-10-22T18:36:16.026Z,14.30
2022-10-22T18:38:50.194Z,14.30
2022-10-22T18:41:18.124Z,14.20
2022-10-22T18:43:50.411Z,14.20
2022-10-22T18:46:19.564Z,14.00
2022-10-22T18:48:47.855Z,14.10
2022-10-22T18:51:16.094Z,14.00
2022-10-22T18:53:53.716Z,14.10
2022-10-22T18:56:32.922Z,14.10
2022-10-22T18:59:04.972Z,14.10
2022-10-22T19:01:35.408Z,14.10
2022-10-22T19:04:03.616Z,14.10
2022-10-22T19:06:35.718Z,14.00
2022-10-22T19:09:09.024Z,14.10
2022-10-22T19:11:38.701Z,14.00
2022-10-22T19:14:06.669Z,14.00
2022-10-22T19:16:35.240Z,13.90
2022-10-22T19:19:07.214Z,13.80
2022-10-22T19:21:38.983Z,13.70
2022-10-22T19:24:07.408Z,13.70
2022-10-22T19:26:36.764Z,13.80
2022-10-22T19:29:06.000Z,13.80
2022-10-22T19:31:34.128Z,13.90
2022-10-22T19:34:04.316Z,13.80
2022-10-22T19:36:34.336Z,13.90
2022-10-22T19:39:04.014Z,13.90
2022-10-22T19:41:33.717Z,13.90
2022-10-22T19:44:01.919Z,13.80
2022-10-22T19:46:32.578Z,13.80
2022-10-22T19:49:00.450Z,13.80
2022-10-22T19:51:30.659Z,13.80
2022-10-22T19:53:59.969Z,13.70
2022-10-22T19:56:28.367Z,13.50
2022-10-22T19:58:56.131Z,13.40
2022-10-22T20:01:24.004Z,13.40
2022-10-22T20:03:53.651Z,13.40
2022-10-22T20:06:21.754Z,13.30
2022-10-22T20:08:53.722Z,13.30
2022-10-22T20:11:25.700Z,13.30
2022-10-22T20:13:53.743Z,13.20
2022-10-22T20:16:24.217Z,13.20
2022-10-22T20:18:53.686Z,13.30
2022-10-22T20:21:22.172Z,13.30
2022-10-22T20:23:54.129Z,13.30
2022-10-22T20:26:23.719Z,13.30
2022-10-22T20:28:51.719Z,13.30
2022-10-22T20:31:21.670Z,13.40
2022-10-22T20:33:50.298Z,13.40
2022-10-22T20:36:20.901Z,13.40
2022-10-22T20:38:48.976Z,13.30
2022-10-22T20:41:19.165Z,13.20
2022-10-22T20:43:47.512Z,13.10
2022-10-22T20:46:18.739Z,13.10
2022-10-22T20:48:46.663Z,13.10
2022-10-22T20:51:14.971Z,13.00
2022-10-22T20:53:44.162Z,13.00
2022-10-22T20:56:14.682Z,12.90
2022-10-22T20:58:47.667Z,12.90
2022-10-22T21:01:21.239Z,12.80
2022-10-22T21:03:49.542Z,12.80
2022-10-22T21:06:17.606Z,12.80
2022-10-22T21:08:46.708Z,12.70
2022-10-22T21:11:14.459Z,12.70
2022-10-22T21:13:42.176Z,12.70
2022-10-22T21:16:11.480Z,12.70
2022-10-22T21:18:39.559Z,12.80
2022-10-22T21:21:08.318Z,12.80
2022-10-22T21:23:37.508Z,12.80
2022-10-22T21:26:07.142Z,12.80
2022-10-22T21:28:35.930Z,12.80
2022-10-22T21:31:04.319Z,12.80
2022-10-22T21:33:32.334Z,12.80
2022-10-22T21:36:00.025Z,12.70
2022-10-22T21:38:27.799Z,12.60
2022-10-22T21:40:55.466Z,12.60
2022-10-22T21:43:24.487Z,12.60
2022-10-22T21:45:52.227Z,12.60
2022-10-22T21:48:19.894Z,12.60
2022-10-22T21:50:47.645Z,12.60
2022-10-22T21:53:15.335Z,12.70
2022-10-22T21:55:43.330Z,12.80
2022-10-22T21:58:11.131Z,12.70
2022-10-22T22:00:40.052Z,12.70
2022-10-22T22:03:08.099Z,12.70
2022-10-22T22:05:35.907Z,12.70
2022-10-22T22:08:03.623Z,12.70
2022-10-22T22:10:31.367Z,12.80
2022-10-22T22:12:59.055Z,12.80
2022-10-22T22:15:26.741Z,12.80
2022-10-22T22:17:55.735Z,12.80
2022-10-22T22:20:38.382Z,12.80
2022-10-22T22:23:06.030Z,12.80
2022-10-22T22:25:33.762Z,12.80
2022-10-22T22:28:01.449Z,12.80
2022-10-22T22:30:29.455Z,12.70
2022-10-22T22:32:58.451Z,12.60
2022-10-22T22:35:26.584Z,12.60
2022-10-22T22:37:54.410Z,12.60
2022-10-22T22:40:22.304Z,12.50
2022-10-22T22:42:49.960Z,12.50
2022-10-22T22:45:17.671Z,12.50
2022-10-22T22:47:45.382Z,12.60
2022-10-22T22:50:14.395Z,12.60
2022-10-22T22:52:44.615Z,12.50
2022-10-22T22:55:12.392Z,12.50
2022-10-22T22:57:40.127Z,12.60
2022-10-22T23:00:09.098Z,12.60
2022-10-22T23:02:40.357Z,12.60
2022-10-22T23:05:09.024Z,12.60
2022-10-22T23:07:38.037Z,12.50
2022-10-22T23:10:06.771Z,12.50
2022-10-22T23:12:34.458Z,12.50
2022-10-22T23:15:02.180Z,12.40
2022-10-22T23:17:29.966Z,12.40
2022-10-22T23:20:00.133Z,12.30
2022-10-22T23:22:27.842Z,12.40
2022-10-22T23:24:58.281Z,12.50
2022-10-22T23:27:25.975Z,12.50
2022-10-22T23:29:53.630Z,12.50
2022-10-22T23:32:21.277Z,12.50
2022-10-22T23:34:49.095Z,12.50
2022-10-22T23:37:16.807Z,12.40
2022-10-22T23:39:44.516Z,12.50
2022-10-22T23:42:13.538Z,12.50
2022-10-22T23:44:41.327Z,12.50
2022-10-22T23:47:09.000Z,12.40
2022-10-22T23:49:36.720Z,12.40
2022-10-22T23:52:04.540Z,12.30
2022-10-22T23:54:32.273Z,12.30
2022-10-22T23:56:59.982Z,12.20
2022-10-22T23:59:28.972Z,12.20
